createdAt,value
2022-11-23T00:01:44.023Z,97539.72
2022-11-23T00:04:13.967Z,97533.69
2022-11-23T00:06:42.292Z,97533.50
2022-11-23T00:09:11.668Z,97527.91
2022-11-23T00:11:40.077Z,97530.13
2022-11-23T00:14:07.575Z,97540.78
2022-11-23T00:16:35.200Z,97533.97
2022-11-23T00:19:03.850Z,97535.44
2022-11-23T00:21:33.258Z,97537.44
2022-11-23T00:24:01.388Z,97527.81
2022-11-23T00:26:29.153Z,97531.31
2022-11-23T00:28:57.058Z,97536.25
2022-11-23T00:31:27.655Z,97531.63
2022-11-23T00:33:57.485Z,97537.94
2022-11-23T00:36:27.945Z,97534.09
2022-11-23T00:38:56.354Z,97535.66
2022-11-23T00:41:28.888Z,97535.00
2022-11-23T00:44:12.994Z,97532.91
2022-11-23T00:46:40.649Z,97531.50
2022-11-23T00:49:08.268Z,97531.41
2022-11-23T00:51:38.017Z,97540.53
2022-11-23T00:54:06.693Z,97536.50
2022-11-23T00:56:36.065Z,97531.50
2022-11-23T00:59:06.739Z,97533.09
2022-11-23T01:01:39.452Z,97529.84
2022-11-23T01:04:10.255Z,97531.94
2022-11-23T01:06:40.847Z,97529.00
2022-11-23T01:09:18.500Z,97532.50
2022-11-23T01:11:46.200Z,97529.34
2022-11-23T01:14:13.846Z,97535.28
2022-11-23T01:16:42.449Z,97544.78
2022-11-23T01:19:19.223Z,97541.88
2022-11-23T01:21:50.283Z,97542.78
2022-11-23T01:24:23.483Z,97539.69
2022-11-23T01:26:55.642Z,97555.25
2022-11-23T01:29:33.808Z,97548.69
2022-11-23T01:32:04.864Z,97551.13
2022-11-23T01:34:38.259Z,97550.38
2022-11-23T01:37:06.297Z,97552.41
2022-11-23T01:39:33.984Z,97552.31
2022-11-23T01:42:03.019Z,97548.84
2022-11-23T01:44:36.820Z,97553.38
2022-11-23T01:47:09.683Z,97557.72
2022-11-23T01:49:50.048Z,97560.75
2022-11-23T01:52:26.831Z,97557.03
2022-11-23T01:54:59.884Z,97559.25
2022-11-23T01:57:40.938Z,97567.59
2022-11-23T02:00:13.560Z,97563.88
2022-11-23T02:02:55.611Z,97557.34
2022-11-23T02:05:34.142Z,97570.34
2022-11-23T02:08:03.208Z,97568.75
2022-11-23T02:10:34.200Z,97569.56
2022-11-23T02:13:11.760Z,97571.25
2022-11-23T02:15:40.683Z,97572.09
2022-11-23T02:18:19.924Z,97570.66
2022-11-23T02:20:50.980Z,97574.75
2022-11-23T02:24:04.070Z,97570.66
2022-11-23T02:26:37.170Z,97566.09
2022-11-23T02:29:28.217Z,97563.09
2022-11-23T02:31:58.390Z,97568.09
2022-11-23T02:34:25.908Z,97564.88
2022-11-23T02:36:57.730Z,97569.69
2022-11-23T02:39:43.036Z,97576.44
2022-11-23T02:42:11.114Z,97570.59
2022-11-23T02:45:13.017Z,97574.50
2022-11-23T02:47:43.234Z,97575.84
2022-11-23T02:50:12.447Z,97580.44
2022-11-23T02:52:43.340Z,97577.06
2022-11-23T02:55:11.304Z,97577.41
2022-11-23T02:57:38.889Z,97580.22
2022-11-23T03:00:07.933Z,97582.22
2022-11-23T03:02:35.385Z,97578.50
2022-11-23T03:05:03.203Z,97581.28
2022-11-23T03:07:33.146Z,97585.06
2022-11-23T03:10:00.923Z,97580.03
2022-11-23T03:12:28.561Z,97582.03
2022-11-23T03:14:56.355Z,97590.94
2022-11-23T03:17:25.034Z,97581.13
2022-11-23T03:19:52.347Z,97575.47
2022-11-23T03:22:20.053Z,97573.84
2022-11-23T03:24:47.865Z,97574.81
2022-11-23T03:27:17.116Z,97576.72
2022-11-23T03:29:45.652Z,97577.44
2022-11-23T03:32:19.125Z,97574.84
2022-11-23T03:34:51.927Z,97572.44
2022-11-23T03:37:21.158Z,97561.56
2022-11-23T03:39:49.193Z,97566.19
2022-11-23T03:42:35.780Z,97569.50
2022-11-23T03:45:03.889Z,97579.69
2022-11-23T03:47:31.378Z,97577.41
2022-11-23T03:49:58.939Z,97588.38
2022-11-23T03:52:27.670Z,97582.91
2022-11-23T03:54:56.066Z,97573.91
2022-11-23T03:57:23.694Z,97569.19
2022-11-23T03:59:54.870Z,97569.09
2022-11-23T04:02:22.830Z,97568.44
2022-11-23T04:05:02.012Z,97558.41
2022-11-23T04:07:51.213Z,97560.25
2022-11-23T04:10:20.802Z,97558.22
2022-11-23T04:13:20.822Z,97561.59
2022-11-23T04:15:48.332Z,97560.06
2022-11-23T04:18:16.089Z,97559.22
2022-11-23T04:20:43.724Z,97551.38
2022-11-23T04:23:14.198Z,97555.38
2022-11-23T04:25:44.227Z,97561.31
2022-11-23T04:28:12.636Z,97555.91
2022-11-23T04:30:50.331Z,97554.56
2022-11-23T04:33:19.013Z,97563.38
2022-11-23T04:35:46.514Z,97560.59
2022-11-23T04:38:14.923Z,97551.34
2022-11-23T04:40:43.468Z,97559.09
2022-11-23T04:43:11.814Z,97552.38
2022-11-23T04:45:41.319Z,97554.66
2022-11-23T04:48:15.778Z,97560.91
2022-11-23T04:50:46.734Z,97550.91
2022-11-23T04:53:21.071Z,97551.03
2022-11-23T04:55:48.821Z,97552.81
2022-11-23T04:58:17.498Z,97555.16
2022-11-23T05:00:46.924Z,97543.63
2022-11-23T05:03:15.596Z,97552.97
2022-11-23T05:05:43.898Z,97555.56
2022-11-23T05:08:11.483Z,97560.69
2022-11-23T05:10:48.885Z,97556.91
2022-11-23T05:13:16.274Z,97561.25
2022-11-23T05:15:44.962Z,97557.06
2022-11-23T05:18:16.372Z,97557.06
2022-11-23T05:20:46.062Z,97557.56
2022-11-23T05:23:15.045Z,97556.47
2022-11-23T05:25:44.728Z,97560.38
2022-11-23T05:28:39.104Z,97548.88
2022-11-23T05:31:06.916Z,97549.69
2022-11-23T05:33:34.609Z,97550.84
2022-11-23T05:36:04.742Z,97544.34
2022-11-23T05:38:37.434Z,97538.94
2022-11-23T05:41:10.909Z,97540.25
2022-11-23T05:43:41.194Z,97545.41
2022-11-23T05:46:11.925Z,97539.06
2022-11-23T05:48:39.621Z,97538.38
2022-11-23T05:51:10.209Z,97542.34
2022-11-23T05:53:42.028Z,97537.22
2022-11-23T05:56:16.914Z,97541.69
2022-11-23T05:58:59.252Z,97546.94
2022-11-23T06:01:29.118Z,97534.06
2022-11-23T06:04:00.555Z,97547.22
2022-11-23T06:06:36.327Z,97546.84
2022-11-23T06:09:04.539Z,97544.91
2022-11-23T06:11:33.498Z,97541.69
2022-11-23T06:14:09.975Z,97534.91
2022-11-23T06:16:40.230Z,97538.03
2022-11-23T06:19:20.331Z,97540.31
2022-11-23T06:21:50.553Z,97538.19
2022-11-23T06:24:24.092Z,97541.03
2022-11-23T06:27:14.006Z,97547.59
2022-11-23T06:29:45.199Z,97542.97
2022-11-23T06:32:12.747Z,97539.34
2022-11-23T06:34:40.088Z,97548.31
2022-11-23T06:37:07.355Z,97540.38
2022-11-23T06:39:35.789Z,97542.31
2022-11-23T06:42:30.921Z,97549.72
2022-11-23T06:44:52.762Z,97547.66
2022-11-23T06:47:26.263Z,97553.25
2022-11-23T06:49:54.035Z,97551.84
2022-11-23T06:52:28.518Z,97558.19
2022-11-23T06:54:56.002Z,97554.94
2022-11-23T06:57:25.392Z,97562.97
2022-11-23T06:59:53.948Z,97569.03
2022-11-23T07:02:27.149Z,97575.94
2022-11-23T07:04:57.323Z,97571.78
2022-11-23T07:07:25.674Z,97572.50
2022-11-23T07:10:06.814Z,97575.38
2022-11-23T07:12:45.574Z,97570.13
2022-11-23T07:15:14.902Z,97581.13
2022-11-23T07:17:44.711Z,97584.97
2022-11-23T07:20:13.815Z,97589.84
2022-11-23T07:22:41.573Z,97585.28
2022-11-23T07:25:09.696Z,97587.81
2022-11-23T07:27:37.662Z,97580.91
2022-11-23T07:30:06.893Z,97582.53
2022-11-23T07:32:34.378Z,97584.59
2022-11-23T07:35:01.680Z,97580.72
2022-11-23T07:37:30.550Z,97586.38
2022-11-23T07:39:58.616Z,97588.78
2022-11-23T07:42:34.674Z,97587.94
2022-11-23T07:45:06.995Z,97589.94
2022-11-23T07:47:36.915Z,97596.53
2022-11-23T07:50:07.045Z,97593.56
2022-11-23T07:52:36.236Z,97596.56
2022-11-23T07:55:04.645Z,97602.78
2022-11-23T07:57:32.188Z,97605.59
2022-11-23T07:59:59.431Z,97604.66
2022-11-23T08:02:26.698Z,97605.16
2022-11-23T08:04:53.871Z,97602.63
2022-11-23T08:07:21.178Z,97596.69
2022-11-23T08:10:14.166Z,97595.00
2022-11-23T08:12:42.700Z,97600.50
2022-11-23T08:15:12.724Z,97598.41
2022-11-23T08:17:43.440Z,97608.69
2022-11-23T08:20:11.808Z,97600.00
2022-11-23T08:22:39.125Z,97599.13
2022-11-23T08:25:06.940Z,97598.56
2022-11-23T08:27:38.369Z,97600.69
2022-11-23T08:30:14.740Z,97602.50
2022-11-23T08:32:42.009Z,97611.94
2022-11-23T08:35:09.712Z,97607.66
2022-11-23T08:37:36.971Z,97601.94
2022-11-23T08:40:04.716Z,97593.47
2022-11-23T08:42:31.962Z,97604.47
2022-11-23T08:45:00.227Z,97602.59
2022-11-23T08:47:27.711Z,97602.22
2022-11-23T08:49:55.162Z,97597.78
2022-11-23T08:52:22.345Z,97599.66
2022-11-23T08:54:49.533Z,97597.09
2022-11-23T08:57:16.807Z,97600.41
2022-11-23T08:59:43.984Z,97604.47
2022-11-23T09:02:13.965Z,97602.03
2022-11-23T09:04:41.731Z,97605.84
2022-11-23T09:07:09.200Z,97612.00
2022-11-23T09:09:36.689Z,97613.94
2022-11-23T09:12:04.882Z,97618.19
2022-11-23T09:14:33.181Z,97604.69
2022-11-23T09:17:03.272Z,97605.53
2022-11-23T09:19:30.766Z,97598.59
2022-11-23T09:21:58.127Z,97609.72
2022-11-23T09:24:26.196Z,97610.84
2022-11-23T09:26:53.697Z,97618.13
2022-11-23T09:29:21.002Z,97609.13
2022-11-23T09:31:48.133Z,97609.09
2022-11-23T09:34:15.358Z,97618.34
2022-11-23T09:36:42.628Z,97616.53
2022-11-23T09:39:11.414Z,97616.22
2022-11-23T09:42:09.507Z,97612.06
2022-11-23T09:45:10.888Z,97608.59
2022-11-23T09:48:07.170Z,97614.03
2022-11-23T09:51:05.627Z,97607.34
2022-11-23T09:53:49.600Z,97598.53
2022-11-23T09:56:58.481Z,97598.69
2022-11-23T09:59:45.026Z,97599.69
2022-11-23T10:02:28.778Z,97601.81
2022-11-23T10:05:00.032Z,97607.53
2022-11-23T10:08:14.840Z,97594.38
2022-11-23T10:10:57.270Z,97603.38
2022-11-23T10:13:44.059Z,97606.38
2022-11-23T10:16:40.782Z,97591.44
2022-11-23T10:19:16.979Z,97586.50
2022-11-23T10:22:24.422Z,97582.56
2022-11-23T10:24:53.986Z,97573.22
2022-11-23T10:27:24.534Z,97577.97
2022-11-23T10:29:56.513Z,97572.31
2022-11-23T10:33:05.443Z,97581.09
2022-11-23T10:35:35.224Z,97575.63
2022-11-23T10:38:19.677Z,97575.50
2022-11-23T10:41:10.573Z,97578.09
2022-11-23T10:44:01.474Z,97568.97
2022-11-23T10:46:37.968Z,97570.44
2022-11-23T10:49:30.148Z,97568.59
2022-11-23T10:52:33.405Z,97563.41
2022-11-23T10:55:32.357Z,97568.97
2022-11-23T10:58:01.230Z,97562.50
2022-11-23T11:00:31.122Z,97565.97
2022-11-23T11:03:12.428Z,97567.88
2022-11-23T11:06:11.590Z,97563.75
2022-11-23T11:09:03.710Z,97559.94
2022-11-23T11:11:38.957Z,97553.41
2022-11-23T11:14:19.511Z,97556.09
2022-11-23T11:16:56.693Z,97547.28
2022-11-23T11:19:32.484Z,97551.22
2022-11-23T11:22:05.288Z,97548.09
2022-11-23T11:24:44.841Z,97542.34
2022-11-23T11:27:24.759Z,97544.81
2022-11-23T11:29:59.507Z,97537.00
2022-11-23T11:33:07.077Z,97538.84
2022-11-23T11:35:41.164Z,97539.69
2022-11-23T11:38:34.147Z,97534.47
2022-11-23T11:41:13.487Z,97523.66
2022-11-23T11:44:02.593Z,97528.06
2022-11-23T11:46:40.785Z,97526.50
2022-11-23T11:49:29.167Z,97521.22
2022-11-23T11:52:22.235Z,97513.81
2022-11-23T11:55:07.331Z,97513.38
2022-11-23T11:57:45.894Z,97513.16
2022-11-23T12:00:21.135Z,97508.22
2022-11-23T12:03:10.522Z,97503.28
2022-11-23T12:05:54.878Z,97495.28
2022-11-23T12:08:41.038Z,97510.38
2022-11-23T12:11:12.879Z,97497.34
2022-11-23T12:13:46.814Z,97494.31
2022-11-23T12:17:31.907Z,97492.97
2022-11-23T12:20:15.783Z,97486.03
2022-11-23T12:23:42.396Z,97481.81
2022-11-23T12:26:24.604Z,97467.66
2022-11-23T12:29:35.320Z,97479.94
2022-11-23T12:32:46.448Z,97464.22
2022-11-23T12:35:56.748Z,97469.63
2022-11-23T12:39:22.632Z,97466.19
2022-11-23T12:42:17.550Z,97466.28
2022-11-23T12:45:32.983Z,97487.97
2022-11-23T12:48:23.973Z,97471.94
2022-11-23T12:51:58.253Z,97468.31
2022-11-23T12:55:20.655Z,97456.84
2022-11-23T12:58:12.380Z,97455.03
2022-11-23T13:00:50.709Z,97461.09
2022-11-23T13:03:45.932Z,97450.06
2022-11-23T13:07:26.900Z,97455.16
2022-11-23T13:10:06.134Z,97445.69
2022-11-23T13:13:31.886Z,97447.59
2022-11-23T13:16:35.658Z,97441.00
2022-11-23T13:19:47.011Z,97442.91
2022-11-23T13:22:22.520Z,97448.34
2022-11-23T13:25:12.845Z,97444.91
2022-11-23T13:27:49.332Z,97431.72
2022-11-23T13:33:38.555Z,97428.25
2022-11-23T13:36:15.311Z,97425.34
2022-11-23T13:38:46.017Z,97422.13
2022-11-23T13:41:35.276Z,97416.94
2022-11-23T13:44:31.569Z,97417.94
2022-11-23T13:47:29.651Z,97417.66
2022-11-23T13:50:19.649Z,97404.25
2022-11-23T13:52:52.314Z,97402.59
2022-11-23T13:55:27.867Z,97399.38
2022-11-23T13:58:23.561Z,97391.50
2022-11-23T14:00:59.866Z,97385.91
2022-11-23T14:03:50.124Z,97386.03
2022-11-23T14:07:07.374Z,97387.88
2022-11-23T14:10:29.897Z,97379.91
2022-11-23T14:13:20.213Z,97376.59
2022-11-23T14:15:59.487Z,97375.97
2022-11-23T14:19:14.385Z,97373.50
2022-11-23T14:22:45.632Z,97369.97
2022-11-23T14:26:05.011Z,97362.56
2022-11-23T14:29:22.085Z,97377.41
2022-11-23T14:32:50.383Z,97368.34
2022-11-23T14:35:59.348Z,97360.53
2022-11-23T14:39:21.639Z,97359.75
2022-11-23T14:41:59.877Z,97359.19
2022-11-23T14:44:34.130Z,97370.06
2022-11-23T14:47:08.432Z,97359.88
2022-11-23T14:49:38.062Z,97357.53
2022-11-23T14:52:06.351Z,97360.59
2022-11-23T14:54:35.263Z,97362.13
2022-11-23T14:57:05.529Z,97360.06
2022-11-23T14:59:41.896Z,97352.44
2022-11-23T15:02:19.163Z,97345.31
2022-11-23T15:05:07.004Z,97345.03
2022-11-23T15:07:57.286Z,97338.78
2022-11-23T15:10:43.094Z,97332.06
2022-11-23T15:13:23.336Z,97334.47
2022-11-23T15:15:55.753Z,97332.50
2022-11-23T15:18:39.521Z,97332.22
2022-11-23T15:21:12.967Z,97334.38
2022-11-23T15:23:57.307Z,97334.34
2022-11-23T15:29:37.929Z,97336.06
2022-11-23T15:32:31.190Z,97337.16
2022-11-23T15:35:07.465Z,97341.00
2022-11-23T15:37:47.018Z,97341.25
2022-11-23T15:40:18.525Z,97347.91
2022-11-23T15:42:51.054Z,97339.38
2022-11-23T15:45:37.223Z,97339.06
2022-11-23T15:48:18.817Z,97329.78
2022-11-23T15:51:03.100Z,97330.72
2022-11-23T15:53:44.253Z,97329.03
2022-11-23T15:56:39.837Z,97335.00
2022-11-23T15:59:54.670Z,97332.88
2022-11-23T16:02:26.363Z,97339.66
2022-11-23T16:05:19.401Z,97338.63
2022-11-23T16:08:00.344Z,97343.84
2022-11-23T16:10:37.528Z,97349.91
2022-11-23T16:13:08.868Z,97352.97
2022-11-23T16:15:41.665Z,97360.69
2022-11-23T16:18:25.163Z,97350.91
2022-11-23T16:20:59.869Z,97364.78
2022-11-23T16:23:56.480Z,97369.19
2022-11-23T16:26:34.617Z,97384.34
2022-11-23T16:29:03.746Z,97381.97
2022-11-23T16:31:43.302Z,97387.66
2022-11-23T16:34:18.686Z,97389.16
2022-11-23T16:36:46.481Z,97382.06
2022-11-23T16:39:27.759Z,97390.66
2022-11-23T16:42:23.037Z,97393.16
2022-11-23T16:45:02.315Z,97415.44
2022-11-23T16:47:30.715Z,97408.63
2022-11-23T16:50:09.115Z,97409.75
2022-11-23T16:53:12.128Z,97412.47
2022-11-23T16:56:06.710Z,97426.41
2022-11-23T16:58:51.683Z,97445.81
2022-11-23T17:01:55.455Z,97451.78
2022-11-23T17:04:43.335Z,97464.56
2022-11-23T17:07:54.825Z,97473.75
2022-11-23T17:10:48.340Z,97476.94
2022-11-23T17:17:04.859Z,97486.03
2022-11-23T17:23:47.826Z,97517.75
2022-11-23T17:26:48.189Z,97509.66
2022-11-23T17:29:44.117Z,97521.69
2022-11-23T17:32:40.709Z,97527.88
2022-11-23T17:35:49.824Z,97522.38
2022-11-23T17:38:38.383Z,97521.50
2022-11-23T17:41:15.789Z,97531.78
2022-11-23T17:43:56.370Z,97530.09
2022-11-23T17:46:24.848Z,97537.84
2022-11-23T17:48:57.861Z,97544.19
2022-11-23T17:51:25.761Z,97542.78
2022-11-23T17:53:53.020Z,97552.28
2022-11-23T17:56:29.923Z,97553.38
2022-11-23T17:59:06.947Z,97567.78
2022-11-23T18:01:50.510Z,97572.22
2022-11-23T18:04:23.204Z,97579.16
2022-11-23T18:07:09.653Z,97568.84
2022-11-23T18:09:43.882Z,97574.28
2022-11-23T18:12:21.911Z,97579.28
2022-11-23T18:15:02.747Z,97590.75
2022-11-23T18:17:42.232Z,97595.53
2022-11-23T18:20:23.059Z,97586.03
2022-11-23T18:23:09.965Z,97589.03
2022-11-23T18:26:13.326Z,97592.25
2022-11-23T18:29:16.844Z,97596.50
2022-11-23T18:31:47.706Z,97596.84
2022-11-23T18:34:24.117Z,97610.81
2022-11-23T18:39:47.664Z,97612.69
2022-11-23T18:42:24.361Z,97606.34
2022-11-23T18:45:02.141Z,97612.38
2022-11-23T18:47:29.400Z,97619.28
2022-11-23T18:50:07.103Z,97621.44
2022-11-23T18:52:47.401Z,97620.09
2022-11-23T18:55:17.718Z,97624.00
2022-11-23T19:00:45.634Z,97629.56
2022-11-23T19:03:15.847Z,97626.00
2022-11-23T19:05:43.028Z,97631.44
2022-11-23T19:08:16.682Z,97638.97
2022-11-23T19:10:56.230Z,97644.38
2022-11-23T19:13:26.517Z,97641.97
2022-11-23T19:16:16.156Z,97640.09
2022-11-23T19:18:45.117Z,97652.06
2022-11-23T19:21:38.012Z,97651.44
2022-11-23T19:24:07.321Z,97660.03
2022-11-23T19:26:34.769Z,97658.09
2022-11-23T19:29:10.574Z,97663.59
2022-11-23T19:31:50.709Z,97672.53
2022-11-23T19:34:22.329Z,97673.38
2022-11-23T19:36:49.687Z,97685.25
2022-11-23T19:39:23.721Z,97675.75
2022-11-23T19:41:51.423Z,97692.75
2022-11-23T19:44:18.991Z,97692.50
2022-11-23T19:46:46.241Z,97700.56
2022-11-23T19:49:13.528Z,97707.53
2022-11-23T19:51:40.759Z,97713.63
2022-11-23T19:54:09.865Z,97711.72
2022-11-23T19:56:37.307Z,97724.28
2022-11-23T19:59:04.956Z,97728.97
2022-11-23T20:01:32.896Z,97729.81
2022-11-23T20:04:08.835Z,97729.88
2022-11-23T20:06:42.451Z,97736.25
2022-11-23T20:09:23.396Z,97741.16
2022-11-23T20:11:51.691Z,97741.44
2022-11-23T20:14:19.837Z,97745.84
2022-11-23T20:16:47.894Z,97758.06
2022-11-23T20:19:17.473Z,97768.66
2022-11-23T20:21:47.029Z,97772.03
2022-11-23T20:24:14.864Z,97778.38
2022-11-23T20:26:43.242Z,97788.66
2022-11-23T20:29:11.656Z,97783.31
2022-11-23T20:31:39.308Z,97795.28
2022-11-23T20:34:09.233Z,97802.22
2022-11-23T20:36:38.981Z,97805.13
2022-11-23T20:39:10.969Z,97813.94
2022-11-23T20:41:38.805Z,97826.63
2022-11-23T20:44:15.554Z,97831.72
2022-11-23T20:49:32.029Z,97844.94
2022-11-23T20:52:00.331Z,97853.72
2022-11-23T20:54:27.656Z,97856.75
2022-11-23T20:56:54.947Z,97866.94
2022-11-23T20:59:23.826Z,97867.91
2022-11-23T21:01:52.394Z,97871.84
2022-11-23T21:04:19.587Z,97874.88
2022-11-23T21:06:47.234Z,97889.16
2022-11-23T21:09:16.148Z,97896.56
2022-11-23T21:12:02.447Z,97900.78
2022-11-23T21:14:31.730Z,97906.59
2022-11-23T21:17:00.748Z,97916.72
2022-11-23T21:19:37.669Z,97911.03
2022-11-23T21:22:12.431Z,97917.91
2022-11-23T21:24:40.998Z,97929.69
2022-11-23T21:27:13.139Z,97930.81
2022-11-23T21:29:40.599Z,97927.84
2022-11-23T21:32:07.959Z,97926.88
2022-11-23T21:34:35.568Z,97938.63
2022-11-23T21:37:03.127Z,97939.19
2022-11-23T21:39:32.319Z,97944.66
2022-11-23T21:41:59.658Z,97952.81
2022-11-23T21:44:26.860Z,97952.47
2022-11-23T21:46:54.096Z,97955.84
2022-11-23T21:49:21.611Z,97957.09
2022-11-23T21:51:49.378Z,97961.16
2022-11-23T21:54:16.760Z,97975.38
2022-11-23T21:56:46.580Z,97980.19
2022-11-23T21:59:15.658Z,97982.25
2022-11-23T22:01:43.223Z,97993.06
2022-11-23T22:04:16.150Z,97996.38
2022-11-23T22:06:45.281Z,97996.56
2022-11-23T22:09:15.154Z,97999.50
2022-11-23T22:11:44.442Z,98012.97
2022-11-23T22:14:16.041Z,98011.44
2022-11-23T22:16:47.323Z,98011.84
2022-11-23T22:19:17.025Z,98018.94
2022-11-23T22:21:46.611Z,98022.78
2022-11-23T22:24:18.361Z,98027.56
2022-11-23T22:26:47.562Z,98032.81
2022-11-23T22:29:17.652Z,98036.59
2022-11-23T22:31:45.050Z,98042.88
2022-11-23T22:34:15.239Z,98036.59
2022-11-23T22:36:42.802Z,98038.97
2022-11-23T22:39:10.142Z,98047.34
2022-11-23T22:41:38.439Z,98049.34
2022-11-23T22:44:10.607Z,98058.81
2022-11-23T22:46:39.184Z,98054.88
2022-11-23T22:49:07.033Z,98052.03
2022-11-23T22:51:34.407Z,98068.84
2022-11-23T22:54:02.520Z,98067.19
2022-11-23T22:56:31.506Z,98068.56
2022-11-23T22:58:59.342Z,98078.72
2022-11-23T23:01:30.564Z,98080.84
2022-11-23T23:04:01.875Z,98087.03
2022-11-23T23:06:36.179Z,98083.09
2022-11-23T23:09:07.323Z,98088.41
2022-11-23T23:11:41.119Z,98091.44
2022-11-23T23:14:08.427Z,98089.41
2022-11-23T23:16:35.837Z,98098.91
2022-11-23T23:19:06.376Z,98106.13
2022-11-23T23:21:33.811Z,98099.66
2022-11-23T23:24:01.484Z,98103.94
2022-11-23T23:26:29.965Z,98106.50
2022-11-23T23:29:00.348Z,98112.91
2022-11-23T23:31:30.104Z,98117.94
2022-11-23T23:34:00.026Z,98111.50
2022-11-23T23:36:27.705Z,98127.19
2022-11-23T23:38:55.301Z,98122.16
2022-11-23T23:41:23.079Z,98130.22
2022-11-23T23:43:50.732Z,98130.88
2022-11-23T23:46:19.795Z,98128.25
2022-11-23T23:48:47.434Z,98132.09
2022-11-23T23:51:26.585Z,98133.06
2022-11-23T23:53:54.147Z,98132.00
2022-11-23T23:56:29.209Z,98137.63
2022-11-23T23:58:59.170Z,98129.06
